createdAt,value
2018-01-07T00:00:31.491Z,1014.92
2018-01-07T00:01:31.909Z,1014.95
2018-01-07T00:02:32.338Z,1014.98
2018-01-07T00:03:32.754Z,1014.97
2018-01-07T00:04:33.172Z,1014.97
2018-01-07T00:05:33.598Z,1014.98
2018-01-07T00:06:34.022Z,1014.97
2018-01-07T00:07:34.447Z,1014.98
2018-01-07T00:08:34.861Z,1014.99
2018-01-07T00:09:35.278Z,1015.00
2018-01-07T00:10:35.706Z,1015.01
2018-01-07T00:11:36.120Z,1015.04
2018-01-07T00:15:45.589Z,1015.15
2018-01-07T00:16:45.997Z,1015.15
2018-01-07T00:18:40.627Z,1015.17
2018-01-07T00:19:41.029Z,1015.15
2018-01-07T00:21:47.560Z,1015.19
2018-01-07T00:22:47.990Z,1015.25
2018-01-07T00:24:43.587Z,1015.29
2018-01-07T00:27:17.104Z,1015.39
2018-01-07T00:29:50.874Z,1015.40
2018-01-07T00:30:51.265Z,1015.43
2018-01-07T00:33:48.127Z,1015.43
2018-01-07T00:34:48.544Z,1015.45
2018-01-07T00:36:43.131Z,1015.48
2018-01-07T00:39:42.528Z,1015.43
2018-01-07T00:40:42.934Z,1015.42
2018-01-07T00:42:37.505Z,1015.48
2018-01-07T00:43:37.929Z,1015.55
2018-01-07T00:45:32.518Z,1015.51
2018-01-07T00:48:06.038Z,1015.56
2018-01-07T00:50:41.781Z,1015.63
2018-01-07T00:51:42.185Z,1015.74
2018-01-07T00:53:37.742Z,1015.78
2018-01-07T00:56:11.318Z,1015.82
2018-01-07T00:57:11.732Z,1015.85
2018-01-07T00:59:06.331Z,1015.87
2018-01-07T01:00:06.743Z,1015.90
2018-01-07T01:02:01.301Z,1015.83
2018-01-07T01:03:01.746Z,1015.87
2018-01-07T01:04:56.336Z,1015.84
2018-01-07T01:05:56.745Z,1015.85
2018-01-07T01:07:51.309Z,1015.92
2018-01-07T01:08:51.749Z,1015.88
2018-01-07T01:10:47.317Z,1015.94
2018-01-07T01:11:47.717Z,1015.97
2018-01-07T01:13:42.304Z,1016.01
2018-01-07T01:14:42.730Z,1016.01
2018-01-07T01:16:37.344Z,1016.09
2018-01-07T01:17:37.744Z,1016.10
2018-01-07T01:19:32.310Z,1016.10
2018-01-07T01:20:32.744Z,1016.14
2018-01-07T01:22:27.348Z,1016.20
2018-01-07T01:23:27.756Z,1016.22
2018-01-07T01:25:22.364Z,1016.24
2018-01-07T01:26:22.776Z,1016.33
2018-01-07T01:28:18.335Z,1016.28
2018-01-07T01:29:18.764Z,1016.32
2018-01-07T01:31:13.370Z,1016.39
2018-01-07T01:32:13.777Z,1016.39
2018-01-07T01:34:08.363Z,1016.39
2018-01-07T01:35:08.820Z,1016.43
2018-01-07T01:36:09.203Z,1016.42
2018-01-07T01:37:09.624Z,1016.48
2018-01-07T01:38:10.042Z,1016.48
2018-01-07T01:39:10.478Z,1016.45
2018-01-07T01:40:10.895Z,1016.50
2018-01-07T01:41:11.314Z,1016.51
2018-01-07T01:42:11.728Z,1016.56
2018-01-07T01:43:12.149Z,1016.62
2018-01-07T01:44:12.607Z,1016.58
2018-01-07T01:45:12.993Z,1016.65
2018-01-07T01:46:13.415Z,1016.70
2018-01-07T01:47:13.838Z,1016.63
2018-01-07T01:48:14.256Z,1016.71
2018-01-07T01:49:14.679Z,1016.72
2018-01-07T01:50:15.095Z,1016.72
2018-01-07T01:51:15.516Z,1016.76
2018-01-07T01:52:15.946Z,1016.75
2018-01-07T01:53:16.364Z,1016.77
2018-01-07T01:54:16.808Z,1016.81
2018-01-07T01:55:17.213Z,1016.86
2018-01-07T01:56:17.632Z,1016.91
2018-01-07T01:57:18.051Z,1016.90
2018-01-07T01:58:18.465Z,1016.87
2018-01-07T01:59:18.898Z,1016.90
2018-01-07T02:00:19.314Z,1016.93
2018-01-07T02:01:19.730Z,1016.91
2018-01-07T02:02:20.154Z,1016.95
2018-01-07T02:03:20.572Z,1016.98
2018-01-07T02:04:20.996Z,1017.01
2018-01-07T02:05:21.421Z,1017.01
2018-01-07T02:06:21.837Z,1017.05
2018-01-07T02:07:22.268Z,1017.10
2018-01-07T02:08:22.683Z,1017.13
2018-01-07T02:09:23.102Z,1017.13
2018-01-07T02:10:23.524Z,1017.18
2018-01-07T02:11:23.942Z,1017.12
2018-01-07T02:12:24.372Z,1017.16
2018-01-07T02:13:24.786Z,1017.08
2018-01-07T02:14:25.228Z,1017.07
2018-01-07T02:15:25.627Z,1017.12
2018-01-07T02:16:26.054Z,1017.16
2018-01-07T02:17:26.468Z,1017.13
2018-01-07T02:18:26.885Z,1017.23
2018-01-07T02:19:27.306Z,1017.23
2018-01-07T02:20:27.734Z,1017.24
2018-01-07T02:21:28.172Z,1017.25
2018-01-07T02:22:28.574Z,1017.25
2018-01-07T02:23:29.000Z,1017.25
2018-01-07T02:24:29.419Z,1017.26
2018-01-07T02:25:29.835Z,1017.33
2018-01-07T02:26:30.257Z,1017.33
2018-01-07T02:27:30.682Z,1017.39
2018-01-07T02:28:31.105Z,1017.35
2018-01-07T02:29:31.523Z,1017.35
2018-01-07T02:30:31.941Z,1017.38
2018-01-07T02:31:32.358Z,1017.43
2018-01-07T02:32:32.786Z,1017.42
2018-01-07T02:33:33.209Z,1017.46
2018-01-07T02:34:33.626Z,1017.49
2018-01-07T02:35:34.039Z,1017.51
2018-01-07T02:36:34.462Z,1017.55
2018-01-07T02:37:34.886Z,1017.59
2018-01-07T02:38:35.301Z,1017.58
2018-01-07T02:39:35.723Z,1017.57
2018-01-07T02:40:36.146Z,1017.60
2018-01-07T02:41:36.566Z,1017.62
2018-01-07T02:42:36.983Z,1017.66
2018-01-07T02:43:37.403Z,1017.68
2018-01-07T02:44:37.838Z,1017.69
2018-01-07T02:45:38.256Z,1017.71
2018-01-07T02:46:38.667Z,1017.70
2018-01-07T02:47:39.087Z,1017.81
2018-01-07T02:48:39.509Z,1017.79
2018-01-07T02:49:39.965Z,1017.79
2018-01-07T02:50:40.350Z,1017.82
2018-01-07T02:51:40.769Z,1017.85
2018-01-07T02:52:41.190Z,1017.79
2018-01-07T02:53:41.611Z,1017.82
2018-01-07T02:54:42.048Z,1017.82
2018-01-07T02:55:42.468Z,1017.80
2018-01-07T02:56:42.878Z,1017.78
2018-01-07T02:57:43.293Z,1017.78
2018-01-07T02:58:43.722Z,1017.86
2018-01-07T02:59:44.134Z,1017.82
2018-01-07T03:00:44.561Z,1017.86
2018-01-07T03:01:44.976Z,1017.85
2018-01-07T03:02:45.392Z,1017.91
2018-01-07T03:03:45.818Z,1017.91
2018-01-07T03:04:46.240Z,1017.91
2018-01-07T03:05:46.656Z,1017.96
2018-01-07T03:06:47.076Z,1017.95
2018-01-07T03:07:47.500Z,1017.97
2018-01-07T03:08:47.925Z,1018.01
2018-01-07T03:09:48.351Z,1017.99
2018-01-07T03:10:48.767Z,1018.03
2018-01-07T03:11:49.186Z,1018.04
2018-01-07T03:12:49.602Z,1018.05
2018-01-07T03:13:50.020Z,1018.07
2018-01-07T03:14:50.441Z,1018.11
2018-01-07T03:15:50.863Z,1018.15
2018-01-07T03:16:51.315Z,1018.18
2018-01-07T03:17:51.704Z,1018.17
2018-01-07T03:18:52.126Z,1018.23
2018-01-07T03:19:52.549Z,1018.22
2018-01-07T03:20:52.965Z,1018.21
2018-01-07T03:21:53.387Z,1018.24
2018-01-07T03:22:53.804Z,1018.19
2018-01-07T03:23:54.231Z,1018.23
2018-01-07T03:24:54.645Z,1018.26
2018-01-07T03:25:55.074Z,1018.24
2018-01-07T03:26:55.487Z,1018.32
2018-01-07T03:27:55.908Z,1018.28
2018-01-07T03:28:56.329Z,1018.31
2018-01-07T03:29:56.747Z,1018.40
2018-01-07T03:30:57.175Z,1018.39
2018-01-07T03:31:57.591Z,1018.44
2018-01-07T03:32:58.021Z,1018.46
2018-01-07T03:33:58.433Z,1018.44
2018-01-07T03:34:58.852Z,1018.49
2018-01-07T03:35:59.273Z,1018.48
2018-01-07T03:36:59.692Z,1018.52
2018-01-07T03:38:00.115Z,1018.48
2018-01-07T03:39:00.530Z,1018.53
2018-01-07T03:40:00.957Z,1018.52
2018-01-07T03:41:01.377Z,1018.53
2018-01-07T03:42:01.805Z,1018.57
2018-01-07T03:43:02.216Z,1018.61
2018-01-07T03:44:02.638Z,1018.59
2018-01-07T03:45:03.054Z,1018.60
2018-01-07T03:46:03.478Z,1018.63
2018-01-07T03:47:03.897Z,1018.66
2018-01-07T03:48:04.324Z,1018.65
2018-01-07T03:49:04.743Z,1018.75
2018-01-07T03:50:05.162Z,1018.69
2018-01-07T03:51:05.579Z,1018.75
2018-01-07T03:52:05.997Z,1018.75
2018-01-07T03:53:06.426Z,1018.80
2018-01-07T03:54:06.842Z,1018.85
2018-01-07T03:55:07.259Z,1018.85
2018-01-07T03:56:07.690Z,1018.90
2018-01-07T03:57:08.111Z,1018.91
2018-01-07T03:58:08.530Z,1018.93
2018-01-07T03:59:08.946Z,1018.97
2018-01-07T04:00:09.376Z,1018.94
2018-01-07T04:01:09.780Z,1018.96
2018-01-07T04:02:10.215Z,1018.97
2018-01-07T04:03:10.624Z,1019.00
2018-01-07T04:04:11.048Z,1019.01
2018-01-07T04:05:11.465Z,1019.02
2018-01-07T04:06:11.884Z,1019.05
2018-01-07T04:07:12.303Z,1019.00
2018-01-07T04:08:12.725Z,1019.05
2018-01-07T04:09:13.142Z,1019.07
2018-01-07T04:10:13.563Z,1019.06
2018-01-07T04:11:13.994Z,1019.10
2018-01-07T04:12:14.404Z,1019.07
2018-01-07T04:13:14.827Z,1019.09
2018-01-07T04:14:15.244Z,1019.10
2018-01-07T04:15:15.669Z,1019.19
2018-01-07T04:16:16.085Z,1019.16
2018-01-07T04:17:16.504Z,1019.25
2018-01-07T04:18:16.924Z,1019.25
2018-01-07T04:19:17.347Z,1019.28
2018-01-07T04:20:17.767Z,1019.31
2018-01-07T04:21:18.185Z,1019.33
2018-01-07T04:22:18.617Z,1019.38
2018-01-07T04:23:19.048Z,1019.41
2018-01-07T04:24:19.449Z,1019.39
2018-01-07T04:25:19.875Z,1019.42
2018-01-07T04:26:20.291Z,1019.45
2018-01-07T04:27:20.707Z,1019.45
2018-01-07T04:28:21.127Z,1019.45
2018-01-07T04:29:21.545Z,1019.47
2018-01-07T04:30:21.973Z,1019.48
2018-01-07T04:31:22.391Z,1019.46
2018-01-07T04:32:22.810Z,1019.43
2018-01-07T04:33:23.239Z,1019.46
2018-01-07T04:34:23.652Z,1019.46
2018-01-07T04:35:24.068Z,1019.46
2018-01-07T04:36:24.487Z,1019.50
2018-01-07T04:37:24.905Z,1019.50
2018-01-07T04:38:25.328Z,1019.50
2018-01-07T04:39:25.758Z,1019.52
2018-01-07T04:40:26.173Z,1019.51
2018-01-07T04:41:26.588Z,1019.58
2018-01-07T04:42:27.014Z,1019.56
2018-01-07T04:43:27.430Z,1019.61
2018-01-07T04:44:27.846Z,1019.63
2018-01-07T04:45:28.268Z,1019.62
2018-01-07T04:46:28.685Z,1019.64
2018-01-07T04:47:29.107Z,1019.70
2018-01-07T04:48:29.529Z,1019.73
2018-01-07T04:49:29.949Z,1019.77
2018-01-07T04:50:30.372Z,1019.73
2018-01-07T04:51:30.790Z,1019.79
2018-01-07T04:52:31.211Z,1019.83
2018-01-07T04:53:31.625Z,1019.85
2018-01-07T04:54:32.049Z,1019.88
2018-01-07T04:55:32.481Z,1019.90
2018-01-07T04:56:32.891Z,1019.92
2018-01-07T04:57:33.324Z,1019.91
2018-01-07T04:58:33.730Z,1019.94
2018-01-07T04:59:34.154Z,1019.91
2018-01-07T05:00:34.576Z,1019.93
2018-01-07T05:01:34.990Z,1019.91
2018-01-07T05:02:35.419Z,1019.95
2018-01-07T05:03:35.830Z,1019.99
2018-01-07T05:04:36.253Z,1020.01
2018-01-07T05:05:36.680Z,1020.01
2018-01-07T05:06:37.136Z,1020.08
2018-01-07T05:07:37.517Z,1020.08
2018-01-07T05:08:37.933Z,1020.14
2018-01-07T05:09:38.350Z,1020.16
2018-01-07T05:10:38.773Z,1020.13
2018-01-07T05:11:39.191Z,1020.18
2018-01-07T05:12:39.610Z,1020.20
2018-01-07T05:13:40.033Z,1020.24
2018-01-07T05:14:40.458Z,1020.27
2018-01-07T05:15:40.886Z,1020.32
2018-01-07T05:16:41.301Z,1020.30
2018-01-07T05:17:41.719Z,1020.37
2018-01-07T05:18:42.133Z,1020.36
2018-01-07T05:19:42.550Z,1020.40
2018-01-07T05:20:42.971Z,1020.42
2018-01-07T05:21:43.388Z,1020.43
2018-01-07T05:22:43.808Z,1020.42
2018-01-07T05:23:44.228Z,1020.47
2018-01-07T05:24:44.675Z,1020.47
2018-01-07T05:25:45.072Z,1020.49
2018-01-07T05:26:45.495Z,1020.55
2018-01-07T05:27:45.917Z,1020.52
2018-01-07T05:28:46.335Z,1020.58
2018-01-07T05:29:46.750Z,1020.60
2018-01-07T05:30:47.170Z,1020.59
2018-01-07T05:31:47.591Z,1020.66
2018-01-07T05:32:48.010Z,1020.63
2018-01-07T05:33:48.429Z,1020.68
2018-01-07T05:34:48.852Z,1020.71
2018-01-07T05:35:49.286Z,1020.75
2018-01-07T05:36:49.697Z,1020.78
2018-01-07T05:37:50.112Z,1020.78
2018-01-07T05:38:50.529Z,1020.81
2018-01-07T05:39:50.948Z,1020.84
2018-01-07T05:40:51.430Z,1020.87
2018-01-07T05:41:51.785Z,1020.87
2018-01-07T05:42:52.204Z,1020.92
2018-01-07T05:43:52.624Z,1020.94
2018-01-07T05:44:53.046Z,1020.96
2018-01-07T05:45:53.469Z,1020.94
2018-01-07T05:46:53.885Z,1020.98
2018-01-07T05:47:54.309Z,1020.95
2018-01-07T05:48:54.724Z,1021.02
2018-01-07T05:49:55.145Z,1021.05
2018-01-07T05:50:55.564Z,1021.02
2018-01-07T05:51:55.986Z,1021.11
2018-01-07T05:52:56.403Z,1021.08
2018-01-07T05:53:56.825Z,1021.09
2018-01-07T05:54:57.250Z,1021.09
2018-01-07T05:57:30.801Z,1021.10
2018-01-07T05:58:31.214Z,1021.14
2018-01-07T06:00:26.784Z,1021.20
2018-01-07T06:01:27.186Z,1021.27
2018-01-07T06:03:21.765Z,1021.27
2018-01-07T06:04:22.181Z,1021.27
2018-01-07T06:06:16.820Z,1021.33
2018-01-07T06:07:17.179Z,1021.34
2018-01-07T06:09:11.750Z,1021.42
2018-01-07T06:10:12.174Z,1021.47
2018-01-07T06:12:06.775Z,1021.51
2018-01-07T06:13:07.183Z,1021.56
2018-01-07T06:15:01.771Z,1021.58
2018-01-07T06:16:02.183Z,1021.62
2018-01-07T06:17:57.733Z,1021.61
2018-01-07T06:18:58.157Z,1021.61
2018-01-07T06:20:52.756Z,1021.69
2018-01-07T06:21:53.153Z,1021.67
2018-01-07T06:23:47.740Z,1021.71
2018-01-07T06:24:48.159Z,1021.72
2018-01-07T06:26:42.748Z,1021.81
2018-01-07T06:27:43.178Z,1021.84
2018-01-07T06:29:37.744Z,1021.88
2018-01-07T06:30:38.166Z,1021.91
2018-01-07T06:31:38.580Z,1021.93
2018-01-07T06:32:39.004Z,1022.00
2018-01-07T06:33:39.421Z,1022.02
2018-01-07T06:34:39.840Z,1022.00
2018-01-07T06:35:40.266Z,1022.03
2018-01-07T06:36:40.681Z,1022.05
2018-01-07T06:37:41.105Z,1022.09
2018-01-07T06:38:41.522Z,1022.09
2018-01-07T06:39:41.938Z,1022.14
2018-01-07T06:40:42.358Z,1022.17
2018-01-07T06:41:42.782Z,1022.18
2018-01-07T06:42:43.203Z,1022.21
2018-01-07T06:43:43.623Z,1022.16
2018-01-07T06:44:44.034Z,1022.24
2018-01-07T06:45:44.457Z,1022.24
2018-01-07T06:46:44.875Z,1022.26
2018-01-07T06:47:45.302Z,1022.28
2018-01-07T06:48:45.730Z,1022.34
2018-01-07T06:49:46.136Z,1022.30
2018-01-07T06:50:46.559Z,1022.35
2018-01-07T06:51:46.974Z,1022.35
2018-01-07T06:52:47.399Z,1022.36
2018-01-07T06:53:47.815Z,1022.42
2018-01-07T06:54:48.248Z,1022.48
2018-01-07T06:55:48.653Z,1022.46
2018-01-07T06:56:49.075Z,1022.50
2018-01-07T06:57:49.514Z,1022.53
2018-01-07T06:58:49.920Z,1022.56
2018-01-07T06:59:50.337Z,1022.62
2018-01-07T07:00:50.750Z,1022.66
2018-01-07T07:01:51.172Z,1022.64
2018-01-07T07:02:51.596Z,1022.64
2018-01-07T07:03:52.010Z,1022.63
2018-01-07T07:04:52.430Z,1022.65
2018-01-07T07:05:52.849Z,1022.70
2018-01-07T07:06:53.272Z,1022.77
2018-01-07T07:07:53.688Z,1022.73
2018-01-07T07:08:54.109Z,1022.77
2018-01-07T07:09:54.529Z,1022.79
2018-01-07T07:10:54.954Z,1022.78
2018-01-07T07:11:55.370Z,1022.81
2018-01-07T07:12:55.788Z,1022.82
2018-01-07T07:13:56.206Z,1022.83
2018-01-07T07:14:56.626Z,1022.86
2018-01-07T07:15:57.047Z,1022.90
2018-01-07T07:16:57.463Z,1022.89
2018-01-07T07:17:57.884Z,1022.91
2018-01-07T07:18:58.309Z,1023.02
2018-01-07T07:19:58.728Z,1022.97
2018-01-07T07:20:59.143Z,1022.96
2018-01-07T07:21:59.564Z,1023.07
2018-01-07T07:22:59.981Z,1023.06
2018-01-07T07:24:00.408Z,1023.08
2018-01-07T07:25:00.839Z,1023.16
2018-01-07T07:26:01.239Z,1023.21
2018-01-07T07:27:01.814Z,1023.25
2018-01-07T07:29:16.423Z,1023.34
2018-01-07T07:30:16.803Z,1023.37
2018-01-07T07:32:11.390Z,1023.47
2018-01-07T07:33:11.808Z,1023.51
2018-01-07T07:35:06.394Z,1023.54
2018-01-07T07:36:06.802Z,1023.56
2018-01-07T07:38:01.383Z,1023.54
2018-01-07T07:39:01.810Z,1023.54
2018-01-07T07:40:56.397Z,1023.59
2018-01-07T07:41:56.808Z,1023.59
2018-01-07T07:43:51.400Z,1023.66
2018-01-07T07:44:51.828Z,1023.73
2018-01-07T07:46:46.406Z,1023.82
2018-01-07T07:47:46.813Z,1023.85
2018-01-07T07:49:41.404Z,1023.92
2018-01-07T07:50:41.809Z,1023.89
2018-01-07T07:52:37.365Z,1023.94
2018-01-07T07:53:37.819Z,1024.01
2018-01-07T07:55:32.392Z,1023.98
2018-01-07T07:56:32.812Z,1024.01
2018-01-07T07:58:27.444Z,1024.01
2018-01-07T07:59:27.864Z,1024.00
2018-01-07T08:01:22.443Z,1024.08
2018-01-07T08:02:22.848Z,1024.05
2018-01-07T08:04:17.435Z,1024.11
2018-01-07T08:05:17.842Z,1024.12
2018-01-07T08:07:12.412Z,1024.10
2018-01-07T08:08:12.832Z,1024.10
2018-01-07T08:10:07.431Z,1024.18
2018-01-07T08:11:07.833Z,1024.20
2018-01-07T08:13:02.410Z,1024.18
2018-01-07T08:14:02.963Z,1024.29
2018-01-07T08:15:57.706Z,1024.29
2018-01-07T08:16:57.864Z,1024.33
2018-01-07T08:18:53.708Z,1024.41
2018-01-07T08:21:26.998Z,1024.49
2018-01-07T08:22:27.400Z,1024.46
2018-01-07T08:24:21.981Z,1024.36
2018-01-07T08:26:55.482Z,1024.22
2018-01-07T08:29:29.004Z,1024.17
2018-01-07T08:30:29.435Z,1024.20
2018-01-07T08:32:24.993Z,1024.22
2018-01-07T08:33:25.363Z,1024.19
2018-01-07T08:34:25.784Z,1024.20
2018-01-07T08:35:26.202Z,1024.24
2018-01-07T08:36:26.620Z,1024.22
2018-01-07T08:37:27.038Z,1024.21
2018-01-07T08:38:27.459Z,1024.27
2018-01-07T08:39:27.882Z,1024.31
2018-01-07T08:40:28.299Z,1024.35
2018-01-07T08:41:28.718Z,1024.36
2018-01-07T08:42:29.145Z,1024.40
2018-01-07T08:43:29.560Z,1024.45
2018-01-07T08:44:29.980Z,1024.54
2018-01-07T08:45:30.398Z,1024.54
2018-01-07T08:46:30.816Z,1024.59
2018-01-07T08:47:31.238Z,1024.64
2018-01-07T08:48:31.656Z,1024.69
2018-01-07T08:49:32.084Z,1024.73
2018-01-07T08:50:32.502Z,1024.70
2018-01-07T08:51:32.921Z,1024.65
2018-01-07T08:52:33.335Z,1024.66
2018-01-07T08:53:33.756Z,1024.63
2018-01-07T08:54:34.180Z,1024.57
2018-01-07T08:55:34.598Z,1024.56
2018-01-07T08:56:35.015Z,1024.60
2018-01-07T08:57:35.438Z,1024.60
2018-01-07T08:58:35.855Z,1024.56
2018-01-07T08:59:36.272Z,1024.66
2018-01-07T09:00:36.698Z,1024.62
2018-01-07T09:01:37.119Z,1024.66
2018-01-07T09:02:37.536Z,1024.71
2018-01-07T09:03:37.957Z,1024.75
2018-01-07T09:04:38.375Z,1024.80
2018-01-07T09:05:38.814Z,1024.76
2018-01-07T09:06:39.222Z,1024.80
2018-01-07T09:07:39.633Z,1024.88
2018-01-07T09:08:40.101Z,1024.95
2018-01-07T09:09:40.485Z,1024.90
2018-01-07T09:10:40.902Z,1024.94
2018-01-07T09:11:41.317Z,1024.92
2018-01-07T09:12:41.733Z,1024.99
2018-01-07T09:13:42.154Z,1024.97
2018-01-07T09:14:42.572Z,1024.98
2018-01-07T09:15:42.993Z,1025.06
2018-01-07T09:16:43.412Z,1025.10
2018-01-07T09:17:43.833Z,1025.06
2018-01-07T09:18:44.254Z,1025.10
2018-01-07T09:19:44.710Z,1025.13
2018-01-07T09:20:45.094Z,1025.16
2018-01-07T09:21:45.518Z,1025.09
2018-01-07T09:22:45.933Z,1025.11
2018-01-07T09:23:46.364Z,1025.13
2018-01-07T09:24:46.771Z,1025.19
2018-01-07T09:25:47.191Z,1025.21
2018-01-07T09:26:47.614Z,1025.25
2018-01-07T09:27:48.053Z,1025.30
2018-01-07T09:28:48.455Z,1025.38
2018-01-07T09:29:48.876Z,1025.36
2018-01-07T09:30:49.294Z,1025.36
2018-01-07T09:31:49.722Z,1025.41
2018-01-07T09:32:50.139Z,1025.34
2018-01-07T09:33:50.561Z,1025.33
2018-01-07T09:34:50.974Z,1025.29
2018-01-07T09:35:51.394Z,1025.28
2018-01-07T09:36:51.835Z,1025.28
2018-01-07T09:37:52.252Z,1025.37
2018-01-07T09:38:52.662Z,1025.29
2018-01-07T09:39:53.084Z,1025.35
2018-01-07T09:40:53.500Z,1025.41
2018-01-07T09:41:53.926Z,1025.40
2018-01-07T09:42:54.338Z,1025.40
2018-01-07T09:43:54.757Z,1025.40
2018-01-07T09:44:55.178Z,1025.45
2018-01-07T09:45:55.601Z,1025.47
2018-01-07T09:46:56.031Z,1025.52
2018-01-07T09:47:56.445Z,1025.43
2018-01-07T09:48:56.861Z,1025.45
2018-01-07T09:49:57.282Z,1025.48
2018-01-07T09:50:57.707Z,1025.52
2018-01-07T09:51:58.127Z,1025.52
2018-01-07T09:52:58.548Z,1025.54
2018-01-07T09:53:58.970Z,1025.50
2018-01-07T09:54:59.383Z,1025.58
2018-01-07T09:55:59.803Z,1025.56
2018-01-07T09:59:25.050Z,1025.61
2018-01-07T10:00:25.468Z,1025.64
2018-01-07T10:02:20.014Z,1025.69
2018-01-07T10:03:20.420Z,1025.69
2018-01-07T10:05:15.940Z,1025.73
2018-01-07T10:07:52.368Z,1025.80
2018-01-07T10:08:52.777Z,1025.73
2018-01-07T10:10:59.241Z,1025.71
2018-01-07T10:13:32.765Z,1025.76
2018-01-07T10:14:33.181Z,1025.73
2018-01-07T10:16:28.704Z,1025.73
2018-01-07T10:17:29.176Z,1025.77
2018-01-07T10:19:23.669Z,1025.81
2018-01-07T10:20:24.079Z,1025.78
2018-01-07T10:22:18.642Z,1025.87
2018-01-07T10:23:19.044Z,1025.88
2018-01-07T10:25:13.594Z,1025.95
2018-01-07T10:29:32.249Z,1026.00
2018-01-07T10:32:06.770Z,1026.01
2018-01-07T10:33:07.141Z,1026.02
2018-01-07T10:35:01.696Z,1025.99
2018-01-07T10:36:02.106Z,1026.01
2018-01-07T10:37:56.648Z,1026.05
2018-01-07T10:38:57.070Z,1026.05
2018-01-07T10:40:51.628Z,1026.18
2018-01-07T10:41:52.043Z,1026.19
2018-01-07T10:43:46.595Z,1026.23
2018-01-07T10:44:47.001Z,1026.20
2018-01-07T10:46:41.532Z,1026.19
2018-01-07T10:47:41.999Z,1026.21
2018-01-07T10:49:37.540Z,1026.25
2018-01-07T10:50:37.949Z,1026.32
2018-01-07T10:52:32.523Z,1026.35
2018-01-07T10:53:32.953Z,1026.37
2018-01-07T10:55:27.812Z,1026.38
2018-01-07T10:56:27.953Z,1026.31
2018-01-07T10:58:22.543Z,1026.34
2018-01-07T10:59:22.968Z,1026.37
2018-01-07T11:01:17.518Z,1026.41
2018-01-07T11:02:17.926Z,1026.43
2018-01-07T11:04:13.240Z,1026.45
2018-01-07T11:05:12.894Z,1026.45
2018-01-07T11:08:46.806Z,1026.44
2018-01-07T11:09:47.200Z,1026.51
2018-01-07T11:11:41.782Z,1026.46
2018-01-07T11:12:42.160Z,1026.55
2018-01-07T11:14:37.684Z,1026.51
2018-01-07T11:15:38.110Z,1026.50
2018-01-07T11:17:32.658Z,1026.52
2018-01-07T11:18:33.065Z,1026.52
2018-01-07T11:20:27.702Z,1026.43
2018-01-07T11:21:28.105Z,1026.49
2018-01-07T11:23:22.683Z,1026.48
2018-01-07T11:24:23.111Z,1026.45
2018-01-07T11:26:17.710Z,1026.46
2018-01-07T11:27:18.156Z,1026.43
2018-01-07T11:29:13.666Z,1026.43
2018-01-07T11:30:14.091Z,1026.49
2018-01-07T11:32:09.629Z,1026.51
2018-01-07T11:33:10.045Z,1026.51
2018-01-07T11:35:04.583Z,1026.50
2018-01-07T11:36:05.048Z,1026.46
2018-01-07T11:38:00.551Z,1026.46
2018-01-07T11:39:00.940Z,1026.44
2018-01-07T11:40:55.495Z,1026.43
2018-01-07T11:41:55.908Z,1026.36
2018-01-07T11:43:50.526Z,1026.38
2018-01-07T11:44:50.942Z,1026.38
2018-01-07T11:46:45.552Z,1026.41
2018-01-07T11:47:45.986Z,1026.38
2018-01-07T11:49:40.529Z,1026.42
2018-01-07T11:50:40.973Z,1026.41
2018-01-07T11:52:35.555Z,1026.40
2018-01-07T11:53:35.972Z,1026.42
2018-01-07T11:54:36.395Z,1026.42
2018-01-07T11:55:36.814Z,1026.37
2018-01-07T11:56:37.235Z,1026.43
2018-01-07T11:57:37.654Z,1026.41
2018-01-07T11:58:38.091Z,1026.40
2018-01-07T11:59:38.507Z,1026.34
2018-01-07T12:00:38.924Z,1026.40
2018-01-07T12:01:39.346Z,1026.40
2018-01-07T12:02:39.769Z,1026.39
2018-01-07T12:03:40.186Z,1026.43
2018-01-07T12:04:40.610Z,1026.43
2018-01-07T12:05:41.041Z,1026.41
2018-01-07T12:06:41.457Z,1026.41
2018-01-07T12:07:41.877Z,1026.37
2018-01-07T12:08:42.300Z,1026.41
2018-01-07T12:09:42.720Z,1026.41
2018-01-07T12:10:43.139Z,1026.41
2018-01-07T12:11:43.560Z,1026.44
2018-01-07T12:12:43.992Z,1026.45
2018-01-07T12:13:44.409Z,1026.48
2018-01-07T12:14:44.824Z,1026.51
2018-01-07T12:15:45.247Z,1026.48
2018-01-07T12:16:45.670Z,1026.53
2018-01-07T12:17:46.090Z,1026.54
2018-01-07T12:18:46.551Z,1026.51
2018-01-07T12:19:46.934Z,1026.56
2018-01-07T12:20:47.402Z,1026.55
2018-01-07T12:21:47.778Z,1026.55
2018-01-07T12:22:48.198Z,1026.54
2018-01-07T12:23:48.617Z,1026.59
2018-01-07T12:24:49.052Z,1026.55
2018-01-07T12:25:49.465Z,1026.52
2018-01-07T12:26:49.922Z,1026.57
2018-01-07T12:27:50.305Z,1026.54
2018-01-07T12:30:27.405Z,1026.58
2018-01-07T12:33:00.935Z,1026.58
2018-01-07T12:34:01.360Z,1026.62
2018-01-07T12:35:55.944Z,1026.53
2018-01-07T12:36:56.352Z,1026.60
2018-01-07T12:38:50.925Z,1026.61
2018-01-07T12:39:51.349Z,1026.61
2018-01-07T12:41:45.937Z,1026.60
2018-01-07T12:42:46.343Z,1026.56
2018-01-07T12:44:41.924Z,1026.56
2018-01-07T12:45:42.332Z,1026.61
2018-01-07T12:47:36.915Z,1026.64
2018-01-07T12:48:37.340Z,1026.61
2018-01-07T12:50:31.892Z,1026.62
2018-01-07T12:51:32.295Z,1026.64
2018-01-07T12:53:27.044Z,1026.65
2018-01-07T12:54:27.339Z,1026.65
2018-01-07T12:55:27.761Z,1026.62
2018-01-07T12:56:28.178Z,1026.67
2018-01-07T12:57:28.598Z,1026.61
2018-01-07T12:58:29.017Z,1026.63
2018-01-07T12:59:29.441Z,1026.63
2018-01-07T13:00:29.861Z,1026.61
2018-01-07T13:01:30.330Z,1026.57
2018-01-07T13:02:30.716Z,1026.59
2018-01-07T13:03:31.129Z,1026.61
2018-01-07T13:04:31.555Z,1026.61
2018-01-07T13:05:31.977Z,1026.65
2018-01-07T13:06:32.384Z,1026.70
2018-01-07T13:07:32.813Z,1026.71
2018-01-07T13:08:33.228Z,1026.76
2018-01-07T13:09:33.649Z,1026.71
2018-01-07T13:10:34.068Z,1026.75
2018-01-07T13:11:34.498Z,1026.75
2018-01-07T13:12:34.917Z,1026.71
2018-01-07T13:13:35.329Z,1026.76
2018-01-07T13:14:35.752Z,1026.80
2018-01-07T13:15:36.175Z,1026.78
2018-01-07T13:16:36.591Z,1026.76
2018-01-07T13:17:37.030Z,1026.76
2018-01-07T13:18:37.434Z,1026.78
2018-01-07T13:19:37.871Z,1026.75
2018-01-07T13:20:38.278Z,1026.79
2018-01-07T13:21:38.705Z,1026.78
2018-01-07T13:22:39.119Z,1026.79
2018-01-07T13:23:39.537Z,1026.78
2018-01-07T13:24:39.960Z,1026.80
2018-01-07T13:25:41.689Z,1026.81
2018-01-07T13:26:41.030Z,1026.85
2018-01-07T13:27:41.210Z,1026.77
2018-01-07T13:28:41.665Z,1026.81
2018-01-07T13:29:42.070Z,1026.79
2018-01-07T13:30:42.491Z,1026.79
2018-01-07T13:31:42.902Z,1026.80
2018-01-07T13:32:43.326Z,1026.91
2018-01-07T13:33:43.751Z,1026.85
2018-01-07T13:34:44.164Z,1026.93
2018-01-07T13:35:44.584Z,1026.90
2018-01-07T13:36:45.011Z,1026.94
2018-01-07T13:37:45.451Z,1026.89
2018-01-07T13:38:45.851Z,1026.90
2018-01-07T13:39:46.270Z,1026.92
2018-01-07T13:40:46.687Z,1026.87
2018-01-07T13:41:47.110Z,1026.90
2018-01-07T13:42:47.527Z,1026.89
2018-01-07T13:43:47.951Z,1026.93
2018-01-07T13:44:48.373Z,1026.99
2018-01-07T13:45:48.789Z,1027.01
2018-01-07T13:46:49.208Z,1027.00
2018-01-07T13:47:49.637Z,1027.02
2018-01-07T13:48:50.058Z,1027.10
2018-01-07T13:49:50.480Z,1027.12
2018-01-07T13:50:50.894Z,1027.15
2018-01-07T13:51:51.312Z,1027.19
2018-01-07T13:52:51.733Z,1027.20
2018-01-07T13:53:52.152Z,1027.21
2018-01-07T13:54:52.580Z,1027.21
2018-01-07T13:55:52.996Z,1027.21
2018-01-07T13:56:53.421Z,1027.24
2018-01-07T13:57:53.838Z,1027.26
2018-01-07T13:58:54.258Z,1027.22
2018-01-07T13:59:54.713Z,1027.27
2018-01-07T14:00:55.098Z,1027.28
2018-01-07T14:01:55.536Z,1027.32
2018-01-07T14:02:55.943Z,1027.34
2018-01-07T14:03:56.359Z,1027.35
2018-01-07T14:04:56.781Z,1027.34
2018-01-07T14:05:57.203Z,1027.37
2018-01-07T14:06:57.625Z,1027.39
2018-01-07T14:07:58.041Z,1027.36
2018-01-07T14:08:58.463Z,1027.33
2018-01-07T14:09:58.882Z,1027.37
2018-01-07T14:10:59.303Z,1027.36